Ana Sayfa
METAR-TAF:

METAR-TAF

Havaalanları :

Bangkok, Tayland

Enlem: 13-54-45N, Boylam: 100-36-24E, yükseklik: 4 m

Güncel hava durumu gözlemi

Rapor saat 21:30 UTC de 18 dakika önce yapıldı.
Sakin rüzgar
Sıcaklık 24°C
Nem 83%
Basınç 1011 hPa
Görüş mesafesi: 8000 m

METAR: VTBD 242130Z 00000KT 8000 NSC 24/21 Q1011 NOSIG

Saat: 04:48 (21:48 UTC)

Tahmin

Rapor saat 17:00 UTC de 4 saat ve 48 dakika önce yapıldı.
Ayın 24'si saat 18 UTC'den ayın 25'si saat 24 UTC'ye kadar geçerli Tahmin
Rüzgar güneydan 5 kt
Görüş mesafesi: 8000 m
Dönüşüyor
ayın 24'si saat 23 UTC'den ayın 25'si saat 01 UTC'ye kadar
Rüzgar doğu/güneydoğudan 5 kt
Görüş mesafesi: 3000 m
2000 ft yükseklikte az bulutlu
Pus
Dönüşüyor
ayın 25'si saat 03 UTC'den ayın 25'si saat 05 UTC'ye kadar
Rüzgar güneydan 5 kt
Görüş mesafesi 10 km veya daha fazla

TAF: VTBD 241700Z 2418/2524 18005KT 8000 NSC BECMG 2423/2501 12005KT 3000 BR FEW020 BECMG 2503/2505 19005KT 9999 NSW

4.000'den fazla havaalanı için hava durumu gözlemleri ve tahminleri (METAR ve TAF raporları).

Kullanılabilir istasyonlar harita üzerinde sarı ve kırmızı noktalarla gösterilir.

İstasyonun adını görmek için fareyi noktanın üzerinde gezdirin.

Sonrasında hava gözlem ve tahminlerini görmek için tıklayın.

Haritayı değiştirmek için: yaklaştırmak için siyah artı işaretli yeşil düğmeye ve uzaklaştırmak için de eksi işaretli düğmeye hızla tıklayın; bitişik haritalar için yeşil okları kullanın.


METAR-TAF: